sensor_id;sensor_type;location;lat;lon;timestamp;pressure;altitude;pressure_sealevel;temperature;humidity
74169;BME280;62523;53.336;83.690;2023-06-14T00:02:55;99368.94;;;10.84;100.00
74169;BME280;62523;53.336;83.690;2023-06-14T00:07:57;99374.00;;;11.63;100.00
74169;BME280;62523;53.336;83.690;2023-06-14T00:13:04;99379.91;;;12.26;100.00
74169;BME280;62523;53.336;83.690;2023-06-14T00:18:06;99388.97;;;11.93;100.00
74169;BME280;62523;53.336;83.690;2023-06-14T00:23:07;99397.75;;;11.49;100.00
74169;BME280;62523;53.336;83.690;2023-06-14T00:28:09;99395.50;;;12.86;100.00
74169;BME280;62523;53.336;83.690;2023-06-14T00:33:10;99401.19;;;12.66;99.49
74169;BME280;62523;53.336;83.690;2023-06-14T00:38:12;99414.41;;;13.35;91.40
74169;BME280;62523;53.336;83.690;2023-06-14T00:43:15;99417.97;;;12.79;91.72
74169;BME280;62523;53.336;83.690;2023-06-14T00:48:18;99422.91;;;13.13;89.73
74169;BME280;62523;53.336;83.690;2023-06-14T00:53:21;99442.47;;;12.54;89.02
74169;BME280;62523;53.336;83.690;2023-06-14T00:58:26;99438.56;;;13.16;87.82
74169;BME280;62523;53.336;83.690;2023-06-14T01:03:27;99440.78;;;15.03;79.93
74169;BME280;62523;53.336;83.690;2023-06-14T01:09:11;99438.50;;;13.03;82.85
74169;BME280;62523;53.336;83.690;2023-06-14T01:14:25;99437.56;;;13.04;82.73
74169;BME280;62523;53.336;83.690;2023-06-14T01:19:28;99452.78;;;14.95;74.52
74169;BME280;62523;53.336;83.690;2023-06-14T01:24:30;99458.00;;;16.05;68.73
74169;BME280;62523;53.336;83.690;2023-06-14T01:29:33;99446.69;;;15.79;66.47
74169;BME280;62523;53.336;83.690;2023-06-14T01:34:37;99455.22;;;14.99;67.71
74169;BME280;62523;53.336;83.690;2023-06-14T01:39:39;99454.84;;;13.89;72.19
74169;BME280;62523;53.336;83.690;2023-06-14T01:44:42;99465.50;;;15.03;70.07
74169;BME280;62523;53.336;83.690;2023-06-14T01:49:46;99463.56;;;16.58;62.26
74169;BME280;62523;53.336;83.690;2023-06-14T01:54:49;99461.16;;;16.32;63.21
74169;BME280;62523;53.336;83.690;2023-06-14T01:59:51;99466.19;;;16.02;60.72
74169;BME280;62523;53.336;83.690;2023-06-14T02:04:52;99462.50;;;14.71;66.42
74169;BME280;62523;53.336;83.690;2023-06-14T02:09:58;99471.81;;;15.38;66.02
74169;BME280;62523;53.336;83.690;2023-06-14T02:15:00;99486.25;;;14.34;67.12
74169;BME280;62523;53.336;83.690;2023-06-14T02:20:02;99479.09;;;14.99;64.45
74169;BME280;62523;53.336;83.690;2023-06-14T02:25:06;99475.97;;;14.29;67.83
74169;BME280;62523;53.336;83.690;2023-06-14T02:30:08;99479.41;;;13.39;71.40
74169;BME280;62523;53.336;83.690;2023-06-14T02:35:10;99504.38;;;13.35;73.51
74169;BME280;62523;53.336;83.690;2023-06-14T02:40:12;99503.72;;;13.31;74.15
74169;BME280;62523;53.336;83.690;2023-06-14T02:45:13;99508.59;;;12.96;73.28
74169;BME280;62523;53.336;83.690;2023-06-14T02:50:16;99516.69;;;13.48;71.79
74169;BME280;62523;53.336;83.690;2023-06-14T02:55:18;99528.47;;;13.44;65.40
74169;BME280;62523;53.336;83.690;2023-06-14T03:00:19;99532.63;;;13.61;67.48
74169;BME280;62523;53.336;83.690;2023-06-14T03:05:22;99524.13;;;13.83;68.30
74169;BME280;62523;53.336;83.690;2023-06-14T03:10:24;99512.09;;;13.92;68.68
74169;BME280;62523;53.336;83.690;2023-06-14T03:15:31;99524.06;;;13.58;66.76
74169;BME280;62523;53.336;83.690;2023-06-14T03:20:35;99531.91;;;13.72;64.64
74169;BME280;62523;53.336;83.690;2023-06-14T03:25:37;99534.47;;;13.73;63.38
74169;BME280;62523;53.336;83.690;2023-06-14T03:30:40;99536.50;;;13.83;62.06
74169;BME280;62523;53.336;83.690;2023-06-14T03:35:43;99536.72;;;13.80;60.61
74169;BME280;62523;53.336;83.690;2023-06-14T03:40:45;99545.47;;;14.07;63.95
74169;BME280;62523;53.336;83.690;2023-06-14T03:45:48;99548.03;;;14.34;64.01
74169;BME280;62523;53.336;83.690;2023-06-14T03:50:50;99544.66;;;14.32;62.44
74169;BME280;62523;53.336;83.690;2023-06-14T03:55:52;99556.31;;;14.30;61.20
74169;BME280;62523;53.336;83.690;2023-06-14T04:00:57;99535.25;;;14.54;60.81
74169;BME280;62523;53.336;83.690;2023-06-14T04:06:00;99547.56;;;14.55;59.88
74169;BME280;62523;53.336;83.690;2023-06-14T04:11:02;99545.53;;;15.34;57.22
74169;BME280;62523;53.336;83.690;2023-06-14T04:16:04;99549.91;;;15.22;56.95
74169;BME280;62523;53.336;83.690;2023-06-14T04:21:09;99547.97;;;15.61;60.55
74169;BME280;62523;53.336;83.690;2023-06-14T04:26:11;99549.09;;;15.09;61.95
74169;BME280;62523;53.336;83.690;2023-06-14T04:31:14;99555.25;;;14.20;60.48
74169;BME280;62523;53.336;83.690;2023-06-14T04:36:17;99557.31;;;14.54;58.18
74169;BME280;62523;53.336;83.690;2023-06-14T04:41:27;99550.81;;;15.95;54.17
74169;BME280;62523;53.336;83.690;2023-06-14T04:46:32;99545.72;;;16.16;51.60
74169;BME280;62523;53.336;83.690;2023-06-14T04:51:34;99559.09;;;14.92;57.38
74169;BME280;62523;53.336;83.690;2023-06-14T04:56:36;99556.47;;;14.67;58.73
74169;BME280;62523;53.336;83.690;2023-06-14T05:01:38;99557.53;;;14.64;59.38
74169;BME280;62523;53.336;83.690;2023-06-14T05:06:41;99557.81;;;15.11;56.89
74169;BME280;62523;53.336;83.690;2023-06-14T05:11:46;99562.81;;;15.64;54.47
74169;BME280;62523;53.336;83.690;2023-06-14T05:16:48;99563.69;;;15.40;53.80
74169;BME280;62523;53.336;83.690;2023-06-14T05:21:50;99571.97;;;15.35;53.41
74169;BME280;62523;53.336;83.690;2023-06-14T05:26:52;99587.53;;;15.90;49.95
74169;BME280;62523;53.336;83.690;2023-06-14T05:31:55;99563.53;;;15.79;49.00
74169;BME280;62523;53.336;83.690;2023-06-14T05:36:56;99559.81;;;16.63;49.33
74169;BME280;62523;53.336;83.690;2023-06-14T05:41:58;99569.38;;;15.84;49.94
74169;BME280;62523;53.336;83.690;2023-06-14T05:47:00;99556.44;;;16.50;47.88
74169;BME280;62523;53.336;83.690;2023-06-14T05:52:01;99559.97;;;17.07;46.76
74169;BME280;62523;53.336;83.690;2023-06-14T05:57:03;99555.41;;;16.28;47.93
74169;BME280;62523;53.336;83.690;2023-06-14T06:02:07;99560.03;;;16.02;49.05
74169;BME280;62523;53.336;83.690;2023-06-14T06:07:08;99556.59;;;15.89;49.40
74169;BME280;62523;53.336;83.690;2023-06-14T06:12:10;99561.63;;;15.81;48.94
74169;BME280;62523;53.336;83.690;2023-06-14T06:17:12;99565.13;;;16.05;48.83
74169;BME280;62523;53.336;83.690;2023-06-14T06:22:13;99566.56;;;15.61;50.03
74169;BME280;62523;53.336;83.690;2023-06-14T06:27:15;99558.63;;;16.21;49.50
74169;BME280;62523;53.336;83.690;2023-06-14T06:32:16;99563.69;;;15.77;48.72
74169;BME280;62523;53.336;83.690;2023-06-14T06:37:18;99547.50;;;15.80;50.17
74169;BME280;62523;53.336;83.690;2023-06-14T06:42:20;99555.00;;;15.62;51.01
74169;BME280;62523;53.336;83.690;2023-06-14T06:47:25;99550.84;;;16.06;47.79
74169;BME280;62523;53.336;83.690;2023-06-14T06:52:26;99555.41;;;15.93;46.83
74169;BME280;62523;53.336;83.690;2023-06-14T06:57:31;99533.69;;;15.99;45.68
74169;BME280;62523;53.336;83.690;2023-06-14T07:02:33;99537.09;;;16.12;44.55
74169;BME280;62523;53.336;83.690;2023-06-14T07:07:34;99529.75;;;16.16;43.22
74169;BME280;62523;53.336;83.690;2023-06-14T07:12:36;99528.84;;;16.73;44.16
74169;BME280;62523;53.336;83.690;2023-06-14T07:17:40;99521.78;;;16.85;44.05
74169;BME280;62523;53.336;83.690;2023-06-14T07:22:43;99527.88;;;16.52;42.45
74169;BME280;62523;53.336;83.690;2023-06-14T07:27:46;99518.50;;;17.04;42.46
74169;BME280;62523;53.336;83.690;2023-06-14T07:32:48;99513.53;;;16.99;43.00
74169;BME280;62523;53.336;83.690;2023-06-14T07:37:53;99506.88;;;16.94;44.59
74169;BME280;62523;53.336;83.690;2023-06-14T07:42:54;99516.44;;;16.05;47.31
74169;BME280;62523;53.336;83.690;2023-06-14T07:47:56;99507.63;;;16.85;45.54
74169;BME280;62523;53.336;83.690;2023-06-14T07:52:58;99500.31;;;16.75;45.80
74169;BME280;62523;53.336;83.690;2023-06-14T07:57:59;99499.09;;;16.34;46.91
74169;BME280;62523;53.336;83.690;2023-06-14T08:03:01;99492.22;;;16.77;47.45
74169;BME280;62523;53.336;83.690;2023-06-14T08:08:03;99489.47;;;17.12;42.54
74169;BME280;62523;53.336;83.690;2023-06-14T08:13:04;99497.69;;;16.98;41.45
74169;BME280;62523;53.336;83.690;2023-06-14T08:18:06;99486.09;;;16.88;42.33
74169;BME280;62523;53.336;83.690;2023-06-14T08:23:07;99476.84;;;17.26;40.95
74169;BME280;62523;53.336;83.690;2023-06-14T08:28:10;99480.34;;;17.26;42.22
74169;BME280;62523;53.336;83.690;2023-06-14T08:33:11;99473.69;;;17.64;40.99
74169;BME280;62523;53.336;83.690;2023-06-14T08:38:16;99481.00;;;17.83;40.39
74169;BME280;62523;53.336;83.690;2023-06-14T08:43:18;99481.50;;;17.45;41.76
74169;BME280;62523;53.336;83.690;2023-06-14T08:48:26;99479.06;;;17.74;37.87
74169;BME280;62523;53.336;83.690;2023-06-14T08:53:30;99483.22;;;17.34;37.71
74169;BME280;62523;53.336;83.690;2023-06-14T08:58:34;99477.09;;;17.55;35.74
74169;BME280;62523;53.336;83.690;2023-06-14T09:03:37;99476.19;;;17.66;33.81
74169;BME280;62523;53.336;83.690;2023-06-14T09:08:46;99467.25;;;18.60;34.42
74169;BME280;62523;53.336;83.690;2023-06-14T09:13:50;99460.59;;;17.93;37.51
74169;BME280;62523;53.336;83.690;2023-06-14T09:18:51;99468.34;;;17.96;37.94
74169;BME280;62523;53.336;83.690;2023-06-14T09:23:53;99475.19;;;17.46;40.14
74169;BME280;62523;53.336;83.690;2023-06-14T09:28:55;99479.00;;;17.64;40.36
74169;BME280;62523;53.336;83.690;2023-06-14T09:33:56;99463.31;;;17.82;40.98
74169;BME280;62523;53.336;83.690;2023-06-14T09:38:59;99468.09;;;17.67;42.23
74169;BME280;62523;53.336;83.690;2023-06-14T09:44:04;99469.84;;;16.79;43.82
74169;BME280;62523;53.336;83.690;2023-06-14T09:49:06;99484.63;;;16.72;43.81
74169;BME280;62523;53.336;83.690;2023-06-14T09:54:08;99466.25;;;17.35;42.11
74169;BME280;62523;53.336;83.690;2023-06-14T09:59:29;99461.38;;;17.52;40.88
74169;BME280;62523;53.336;83.690;2023-06-14T10:04:34;99469.91;;;17.34;39.69
74169;BME280;62523;53.336;83.690;2023-06-14T10:09:36;99453.94;;;17.67;38.25
74169;BME280;62523;53.336;83.690;2023-06-14T10:14:38;99461.44;;;17.94;38.34
74169;BME280;62523;53.336;83.690;2023-06-14T10:19:46;99448.78;;;17.86;37.88
74169;BME280;62523;53.336;83.690;2023-06-14T10:24:52;99455.09;;;17.42;38.89
74169;BME280;62523;53.336;83.690;2023-06-14T10:35:06;99456.09;;;16.86;41.83
74169;BME280;62523;53.336;83.690;2023-06-14T10:40:08;99459.84;;;17.06;42.42
74169;BME280;62523;53.336;83.690;2023-06-14T10:45:12;99453.78;;;17.04;42.48
74169;BME280;62523;53.336;83.690;2023-06-14T10:50:14;99456.56;;;16.68;43.13
74169;BME280;62523;53.336;83.690;2023-06-14T10:55:18;99446.53;;;16.49;42.75
74169;BME280;62523;53.336;83.690;2023-06-14T11:00:23;99436.13;;;16.69;41.04
74169;BME280;62523;53.336;83.690;2023-06-14T11:05:27;99438.28;;;17.09;39.13
74169;BME280;62523;53.336;83.690;2023-06-14T11:10:38;99427.94;;;17.27;38.89
74169;BME280;62523;53.336;83.690;2023-06-14T11:15:45;99419.88;;;17.17;38.65
74169;BME280;62523;53.336;83.690;2023-06-14T11:20:48;99416.56;;;17.25;38.81
74169;BME280;62523;53.336;83.690;2023-06-14T11:25:50;99406.00;;;17.02;39.04
74169;BME280;62523;53.336;83.690;2023-06-14T11:31:02;99412.28;;;17.12;38.63
74169;BME280;62523;53.336;83.690;2023-06-14T11:36:05;99410.88;;;17.50;38.07
74169;BME280;62523;53.336;83.690;2023-06-14T11:41:09;99406.56;;;17.49;37.35
74169;BME280;62523;53.336;83.690;2023-06-14T11:46:14;99405.66;;;17.81;36.87
74169;BME280;62523;53.336;83.690;2023-06-14T11:51:23;99405.75;;;17.37;36.00
74169;BME280;62523;53.336;83.690;2023-06-14T11:56:25;99393.47;;;17.46;37.87
74169;BME280;62523;53.336;83.690;2023-06-14T12:01:30;99392.03;;;18.26;35.87
74169;BME280;62523;53.336;83.690;2023-06-14T12:06:32;99392.56;;;19.11;34.66
74169;BME280;62523;53.336;83.690;2023-06-14T12:11:43;99394.06;;;18.84;35.20
74169;BME280;62523;53.336;83.690;2023-06-14T12:16:45;99386.09;;;19.13;34.80
74169;BME280;62523;53.336;83.690;2023-06-14T12:21:47;99390.38;;;18.75;34.69
74169;BME280;62523;53.336;83.690;2023-06-14T12:26:53;99393.09;;;18.85;35.80
74169;BME280;62523;53.336;83.690;2023-06-14T12:31:55;99385.53;;;19.10;34.49
74169;BME280;62523;53.336;83.690;2023-06-14T12:36:58;99385.03;;;18.75;34.55
74169;BME280;62523;53.336;83.690;2023-06-14T12:41:59;99392.00;;;18.57;35.13
74169;BME280;62523;53.336;83.690;2023-06-14T12:47:01;99385.81;;;18.97;34.65
74169;BME280;62523;53.336;83.690;2023-06-14T12:52:02;99398.19;;;18.98;34.46
74169;BME280;62523;53.336;83.690;2023-06-14T12:57:04;99392.13;;;18.55;34.90
74169;BME280;62523;53.336;83.690;2023-06-14T13:02:13;99398.31;;;18.56;34.79
74169;BME280;62523;53.336;83.690;2023-06-14T13:07:15;99396.66;;;18.65;34.81
74169;BME280;62523;53.336;83.690;2023-06-14T13:12:17;99395.09;;;18.21;35.96
74169;BME280;62523;53.336;83.690;2023-06-14T13:17:18;99394.97;;;17.92;36.23
74169;BME280;62523;53.336;83.690;2023-06-14T13:22:20;99392.44;;;18.52;34.98
74169;BME280;62523;53.336;83.690;2023-06-14T13:27:23;99395.88;;;18.03;35.18
74169;BME280;62523;53.336;83.690;2023-06-14T13:32:26;99394.75;;;18.05;35.66
74169;BME280;62523;53.336;83.690;2023-06-14T13:37:27;99386.78;;;18.46;35.26
74169;BME280;62523;53.336;83.690;2023-06-14T13:42:33;99382.03;;;17.76;36.95
74169;BME280;62523;53.336;83.690;2023-06-14T13:47:34;99373.03;;;17.47;37.46
74169;BME280;62523;53.336;83.690;2023-06-14T13:52:36;99373.63;;;17.92;36.35
74169;BME280;62523;53.336;83.690;2023-06-14T13:57:37;99368.06;;;17.21;37.05
74169;BME280;62523;53.336;83.690;2023-06-14T14:02:39;99368.63;;;17.04;37.56
74169;BME280;62523;53.336;83.690;2023-06-14T14:07:44;99368.00;;;16.34;38.84
74169;BME280;62523;53.336;83.690;2023-06-14T14:12:45;99360.50;;;16.16;39.41
74169;BME280;62523;53.336;83.690;2023-06-14T14:17:47;99353.50;;;16.04;39.32
74169;BME280;62523;53.336;83.690;2023-06-14T14:22:48;99356.63;;;15.98;40.65
74169;BME280;62523;53.336;83.690;2023-06-14T14:27:50;99363.19;;;15.94;41.09
74169;BME280;62523;53.336;83.690;2023-06-14T14:32:53;99362.41;;;15.81;39.56
74169;BME280;62523;53.336;83.690;2023-06-14T14:37:54;99357.34;;;15.77;39.56
74169;BME280;62523;53.336;83.690;2023-06-14T14:42:56;99360.47;;;15.71;40.25
74169;BME280;62523;53.336;83.690;2023-06-14T14:47:57;99362.19;;;15.48;41.18
74169;BME280;62523;53.336;83.690;2023-06-14T14:52:59;99364.53;;;15.29;42.62
74169;BME280;62523;53.336;83.690;2023-06-14T14:58:01;99357.47;;;15.41;42.41
74169;BME280;62523;53.336;83.690;2023-06-14T15:03:04;99361.50;;;15.22;43.10
74169;BME280;62523;53.336;83.690;2023-06-14T15:08:06;99357.56;;;15.28;43.54
74169;BME280;62523;53.336;83.690;2023-06-14T15:13:13;99359.13;;;15.30;43.02
74169;BME280;62523;53.336;83.690;2023-06-14T15:18:15;99361.41;;;15.24;42.91
74169;BME280;62523;53.336;83.690;2023-06-14T15:23:18;99365.75;;;15.01;43.74
74169;BME280;62523;53.336;83.690;2023-06-14T15:28:21;99358.97;;;14.97;44.63
74169;BME280;62523;53.336;83.690;2023-06-14T15:33:24;99360.22;;;14.80;45.46
74169;BME280;62523;53.336;83.690;2023-06-14T15:38:29;99354.41;;;14.74;46.30
74169;BME280;62523;53.336;83.690;2023-06-14T15:43:31;99356.03;;;14.64;46.72
74169;BME280;62523;53.336;83.690;2023-06-14T15:48:33;99353.53;;;14.63;46.41
74169;BME280;62523;53.336;83.690;2023-06-14T15:53:35;99355.53;;;14.46;48.24
74169;BME280;62523;53.336;83.690;2023-06-14T15:58:40;99349.41;;;14.59;47.40
74169;BME280;62523;53.336;83.690;2023-06-14T16:03:41;99345.66;;;14.61;47.03
74169;BME280;62523;53.336;83.690;2023-06-14T16:08:44;99352.84;;;14.72;46.75
74169;BME280;62523;53.336;83.690;2023-06-14T16:13:46;99346.06;;;14.68;47.53
74169;BME280;62523;53.336;83.690;2023-06-14T16:18:48;99337.50;;;14.51;48.12
74169;BME280;62523;53.336;83.690;2023-06-14T16:23:50;99345.72;;;14.36;49.00
74169;BME280;62523;53.336;83.690;2023-06-14T16:28:55;99345.75;;;14.10;50.07
74169;BME280;62523;53.336;83.690;2023-06-14T16:33:56;99347.16;;;13.90;51.01
74169;BME280;62523;53.336;83.690;2023-06-14T16:38:58;99345.56;;;13.87;51.95
74169;BME280;62523;53.336;83.690;2023-06-14T16:44:00;99341.31;;;13.72;51.84
74169;BME280;62523;53.336;83.690;2023-06-14T16:49:04;99347.78;;;13.81;50.96
74169;BME280;62523;53.336;83.690;2023-06-14T16:54:06;99342.69;;;13.52;52.14
74169;BME280;62523;53.336;83.690;2023-06-14T16:59:07;99341.66;;;13.15;53.30
74169;BME280;62523;53.336;83.690;2023-06-14T17:04:09;99336.22;;;13.30;52.87
74169;BME280;62523;53.336;83.690;2023-06-14T17:09:10;99340.28;;;13.22;53.14
74169;BME280;62523;53.336;83.690;2023-06-14T17:14:23;99342.09;;;12.94;55.95
74169;BME280;62523;53.336;83.690;2023-06-14T17:19:25;99343.91;;;13.21;55.09
74169;BME280;62523;53.336;83.690;2023-06-14T17:24:27;99339.88;;;12.88;59.95
74169;BME280;62523;53.336;83.690;2023-06-14T17:29:29;99336.53;;;12.72;61.87
74169;BME280;62523;53.336;83.690;2023-06-14T17:34:30;99339.72;;;12.77;65.04
74169;BME280;62523;53.336;83.690;2023-06-14T17:39:32;99341.84;;;12.57;66.39
74169;BME280;62523;53.336;83.690;2023-06-14T17:44:33;99332.94;;;13.00;65.06
74169;BME280;62523;53.336;83.690;2023-06-14T17:49:35;99330.38;;;12.44;67.09
74169;BME280;62523;53.336;83.690;2023-06-14T17:54:37;99329.41;;;12.03;69.13
74169;BME280;62523;53.336;83.690;2023-06-14T17:59:38;99315.81;;;12.51;67.56
74169;BME280;62523;53.336;83.690;2023-06-14T18:04:40;99319.97;;;11.99;67.91
74169;BME280;62523;53.336;83.690;2023-06-14T18:09:41;99319.22;;;12.53;68.22
74169;BME280;62523;53.336;83.690;2023-06-14T18:14:43;99318.91;;;12.31;70.57
74169;BME280;62523;53.336;83.690;2023-06-14T18:19:44;99324.78;;;12.07;71.83
74169;BME280;62523;53.336;83.690;2023-06-14T18:24:45;99318.53;;;11.94;67.81
74169;BME280;62523;53.336;83.690;2023-06-14T18:29:47;99318.09;;;12.16;72.82
74169;BME280;62523;53.336;83.690;2023-06-14T18:34:50;99310.63;;;12.08;69.04
74169;BME280;62523;53.336;83.690;2023-06-14T18:39:53;99312.31;;;12.23;68.35
74169;BME280;62523;53.336;83.690;2023-06-14T18:44:54;99311.47;;;12.23;63.62
74169;BME280;62523;53.336;83.690;2023-06-14T18:49:56;99306.66;;;12.15;72.90
74169;BME280;62523;53.336;83.690;2023-06-14T18:54:57;99304.81;;;12.03;72.53
74169;BME280;62523;53.336;83.690;2023-06-14T18:59:58;99301.09;;;11.62;77.47
74169;BME280;62523;53.336;83.690;2023-06-14T19:05:00;99297.69;;;11.32;81.73
74169;BME280;62523;53.336;83.690;2023-06-14T19:10:06;99303.47;;;11.22;82.57
74169;BME280;62523;53.336;83.690;2023-06-14T19:15:08;99304.31;;;11.09;84.04
74169;BME280;62523;53.336;83.690;2023-06-14T19:20:10;99301.81;;;10.91;85.56
74169;BME280;62523;53.336;83.690;2023-06-14T19:25:11;99303.88;;;10.70;87.80
74169;BME280;62523;53.336;83.690;2023-06-14T19:30:14;99307.47;;;10.53;89.23
74169;BME280;62523;53.336;83.690;2023-06-14T19:35:15;99301.97;;;10.42;90.66
74169;BME280;62523;53.336;83.690;2023-06-14T19:40:20;99298.53;;;10.56;91.51
74169;BME280;62523;53.336;83.690;2023-06-14T19:45:22;99299.53;;;10.21;93.85
74169;BME280;62523;53.336;83.690;2023-06-14T19:50:23;99294.53;;;10.64;93.43
74169;BME280;62523;53.336;83.690;2023-06-14T19:55:25;99295.94;;;10.86;91.67
74169;BME280;62523;53.336;83.690;2023-06-14T20:00:27;99299.81;;;10.49;91.82
74169;BME280;62523;53.336;83.690;2023-06-14T20:05:29;99296.50;;;10.61;92.44
74169;BME280;62523;53.336;83.690;2023-06-14T20:10:34;99297.34;;;10.61;91.06
74169;BME280;62523;53.336;83.690;2023-06-14T20:15:35;99288.16;;;10.21;93.49
74169;BME280;62523;53.336;83.690;2023-06-14T20:20:38;99289.00;;;10.21;94.10
74169;BME280;62523;53.336;83.690;2023-06-14T20:25:44;99279.53;;;10.51;94.40
74169;BME280;62523;53.336;83.690;2023-06-14T20:30:46;99278.09;;;10.29;93.45
74169;BME280;62523;53.336;83.690;2023-06-14T20:35:48;99278.25;;;10.42;92.45
74169;BME280;62523;53.336;83.690;2023-06-14T20:40:49;99275.19;;;10.18;92.02
74169;BME280;62523;53.336;83.690;2023-06-14T20:45:54;99286.97;;;9.95;92.87
74169;BME280;62523;53.336;83.690;2023-06-14T20:50:56;99270.34;;;9.94;94.51
74169;BME280;62523;53.336;83.690;2023-06-14T20:55:57;99271.03;;;10.30;93.93
74169;BME280;62523;53.336;83.690;2023-06-14T21:00:59;99268.72;;;10.08;92.85
74169;BME280;62523;53.336;83.690;2023-06-14T21:06:00;99266.38;;;9.70;95.60
74169;BME280;62523;53.336;83.690;2023-06-14T21:11:05;99274.75;;;9.60;97.52
74169;BME280;62523;53.336;83.690;2023-06-14T21:16:07;99278.09;;;9.13;100.00
74169;BME280;62523;53.336;83.690;2023-06-14T21:21:09;99265.25;;;9.58;100.00
74169;BME280;62523;53.336;83.690;2023-06-14T21:26:10;99262.53;;;9.26;100.00
74169;BME280;62523;53.336;83.690;2023-06-14T21:31:13;99259.22;;;10.05;100.00
74169;BME280;62523;53.336;83.690;2023-06-14T21:36:16;99271.44;;;9.90;100.00
74169;BME280;62523;53.336;83.690;2023-06-14T21:41:17;99267.44;;;9.99;98.88
74169;BME280;62523;53.336;83.690;2023-06-14T21:46:18;99263.28;;;10.11;99.85
74169;BME280;62523;53.336;83.690;2023-06-14T21:51:20;99267.44;;;10.15;98.31
74169;BME280;62523;53.336;83.690;2023-06-14T21:56:21;99262.75;;;9.88;100.00
74169;BME280;62523;53.336;83.690;2023-06-14T22:01:23;99263.19;;;9.47;100.00
74169;BME280;62523;53.336;83.690;2023-06-14T22:06:24;99268.34;;;9.15;100.00
74169;BME280;62523;53.336;83.690;2023-06-14T22:11:26;99271.47;;;9.39;100.00
74169;BME280;62523;53.336;83.690;2023-06-14T22:16:36;99271.03;;;9.14;100.00
74169;BME280;62523;53.336;83.690;2023-06-14T22:21:38;99268.28;;;8.99;100.00
74169;BME280;62523;53.336;83.690;2023-06-14T22:26:42;99260.41;;;8.99;100.00
74169;BME280;62523;53.336;83.690;2023-06-14T22:31:50;99261.19;;;9.01;100.00
74169;BME280;62523;53.336;83.690;2023-06-14T22:36:52;99255.34;;;9.30;100.00
74169;BME280;62523;53.336;83.690;2023-06-14T22:41:54;99254.66;;;9.59;100.00
74169;BME280;62523;53.336;83.690;2023-06-14T22:46:57;99262.06;;;9.84;100.00
74169;BME280;62523;53.336;83.690;2023-06-14T22:52:01;99251.94;;;9.61;100.00
74169;BME280;62523;53.336;83.690;2023-06-14T22:57:05;99255.25;;;9.49;100.00
74169;BME280;62523;53.336;83.690;2023-06-14T23:02:08;99250.88;;;9.97;100.00
74169;BME280;62523;53.336;83.690;2023-06-14T23:07:16;99257.53;;;10.36;100.00
74169;BME280;62523;53.336;83.690;2023-06-14T23:12:23;99254.97;;;10.18;100.00
74169;BME280;62523;53.336;83.690;2023-06-14T23:17:26;99255.38;;;10.11;100.00
74169;BME280;62523;53.336;83.690;2023-06-14T23:22:31;99253.31;;;10.63;100.00
74169;BME280;62523;53.336;83.690;2023-06-14T23:27:36;99238.53;;;12.47;92.60
74169;BME280;62523;53.336;83.690;2023-06-14T23:32:39;99238.16;;;12.54;88.39
74169;BME280;62523;53.336;83.690;2023-06-14T23:37:40;99241.63;;;13.47;83.11
74169;BME280;62523;53.336;83.690;2023-06-14T23:42:42;99236.66;;;14.05;79.92
74169;BME280;62523;53.336;83.690;2023-06-14T23:47:43;99238.44;;;14.41;77.24
74169;BME280;62523;53.336;83.690;2023-06-14T23:52:45;99245.13;;;14.82;75.45
74169;BME280;62523;53.336;83.690;2023-06-14T23:57:47;99239.59;;;14.85;75.42
